createdAt,value
2019-03-30T00:30:27.932Z,61.50
2019-03-30T00:33:07.095Z,58.07
2019-03-30T00:35:43.160Z,57.13
2019-03-30T00:38:21.602Z,57.10
2019-03-30T00:40:57.312Z,55.50
2019-03-30T00:49:48.363Z,55.30
2019-03-30T00:52:30.286Z,56.37
2019-03-30T00:55:38.052Z,55.53
2019-03-30T01:28:38.121Z,50.80
2019-03-30T01:31:27.859Z,51.53
2019-03-30T01:36:50.959Z,52.27
2019-03-30T01:39:43.729Z,50.73
2019-03-30T02:13:07.039Z,54.17
2019-03-30T02:15:47.869Z,53.33
2019-03-30T02:18:42.455Z,47.43
2019-03-30T02:21:27.425Z,40.60
2019-03-30T02:30:31.293Z,32.27
2019-03-30T02:53:33.381Z,33.67
2019-03-30T02:55:57.397Z,35.00
2019-03-30T03:05:06.438Z,34.23
2019-03-30T03:07:35.159Z,33.30
2019-03-30T03:10:07.160Z,33.90
2019-03-30T03:12:37.731Z,33.60
2019-03-30T03:15:07.373Z,33.93
2019-03-30T03:17:35.924Z,34.47
2019-03-30T03:20:06.220Z,34.17
2019-03-30T03:22:34.962Z,33.83
2019-03-30T03:25:04.964Z,34.53
2019-03-30T03:27:33.652Z,32.10
2019-03-30T03:30:02.469Z,32.30
2019-03-30T03:32:31.098Z,32.03
2019-03-30T03:34:59.701Z,30.83
2019-03-30T03:37:43.319Z,30.33
2019-03-30T03:39:58.543Z,31.17
2019-03-30T03:42:27.352Z,30.57
2019-03-30T03:44:56.013Z,30.87
2019-03-30T03:47:24.661Z,30.17
2019-03-30T03:49:53.443Z,28.30
2019-03-30T03:52:22.797Z,29.63
2019-03-30T03:54:52.755Z,29.77
2019-03-30T03:57:24.047Z,29.53
2019-03-30T03:59:55.462Z,29.70
2019-03-30T04:02:27.494Z,29.60
2019-03-30T04:04:58.282Z,28.13
2019-03-30T04:07:29.327Z,29.10
2019-03-30T04:10:01.047Z,29.93
2019-03-30T04:12:31.513Z,30.47
2019-03-30T04:15:02.801Z,31.23
2019-03-30T04:17:32.152Z,30.50
2019-03-30T04:20:00.797Z,28.10
2019-03-30T04:22:29.573Z,28.60
2019-03-30T04:25:35.879Z,29.03
2019-03-30T06:34:00.014Z,22.40
2019-03-30T06:36:48.049Z,20.80
2019-03-30T06:39:21.247Z,20.03
2019-03-30T06:41:49.860Z,20.37
2019-03-30T06:44:22.150Z,19.37
2019-03-30T06:46:57.250Z,19.77
2019-03-30T06:53:12.110Z,18.67
2019-03-30T06:58:49.091Z,18.53
2019-03-30T07:01:18.079Z,21.17
2019-03-30T07:03:47.098Z,18.17
2019-03-30T07:06:15.782Z,19.93
2019-03-30T07:08:46.656Z,18.33
2019-03-30T07:11:21.309Z,17.37
2019-03-30T07:13:49.533Z,17.10
2019-03-30T07:16:18.227Z,16.87
2019-03-30T07:18:47.776Z,17.20
2019-03-30T07:21:16.461Z,17.10
2019-03-30T07:23:45.100Z,17.30
2019-03-30T07:26:13.786Z,16.63
2019-03-30T07:28:42.487Z,16.63
2019-03-30T07:31:11.178Z,15.70
2019-03-30T07:33:39.777Z,16.30
2019-03-30T07:36:08.375Z,16.37
2019-03-30T07:38:36.930Z,15.50
2019-03-30T07:41:05.679Z,18.03
2019-03-30T07:43:34.358Z,16.30
2019-03-30T07:46:03.060Z,15.57
2019-03-30T07:48:31.664Z,16.27
2019-03-30T07:51:00.333Z,16.23
2019-03-30T07:53:28.901Z,15.23
2019-03-30T07:56:07.660Z,16.97
2019-03-30T07:58:27.852Z,16.10
2019-03-30T08:00:56.542Z,15.43
2019-03-30T08:03:25.382Z,16.17
2019-03-30T08:05:54.533Z,15.03
2019-03-30T08:08:23.514Z,15.90
2019-03-30T08:10:52.227Z,16.67
2019-03-30T08:13:20.977Z,15.57
2019-03-30T08:15:49.602Z,15.87
2019-03-30T08:18:18.183Z,15.60
2019-03-30T08:20:46.890Z,15.43
2019-03-30T08:23:15.632Z,15.83
2019-03-30T08:25:44.451Z,17.23
2019-03-30T08:28:16.081Z,15.50
2019-03-30T08:30:44.672Z,16.43
2019-03-30T08:33:13.221Z,16.43
2019-03-30T08:35:41.863Z,17.17
2019-03-30T08:38:10.580Z,16.93
2019-03-30T08:40:39.308Z,16.73
2019-03-30T08:43:07.973Z,16.97
2019-03-30T08:45:36.914Z,15.30
2019-03-30T08:48:05.642Z,16.23
2019-03-30T08:50:34.331Z,16.67
2019-03-30T08:53:04.413Z,15.87
2019-03-30T08:55:33.160Z,17.03
2019-03-30T08:58:01.834Z,16.47
2019-03-30T09:00:40.700Z,16.97
2019-03-30T09:03:13.927Z,17.63
2019-03-30T09:05:42.888Z,17.20
2019-03-30T09:08:11.718Z,15.83
2019-03-30T09:10:40.426Z,16.50
2019-03-30T09:13:11.207Z,17.30
2019-03-30T09:15:44.733Z,16.87
2019-03-30T09:18:13.746Z,16.30
2019-03-30T09:20:42.516Z,15.73
2019-03-30T09:23:11.137Z,16.93
2019-03-30T09:25:39.802Z,16.20
2019-03-30T09:28:08.403Z,17.30
2019-03-30T09:30:37.073Z,16.87
2019-03-30T09:33:06.540Z,16.73
2019-03-30T09:35:35.288Z,16.80
2019-03-30T09:38:04.139Z,17.20
2019-03-30T09:40:32.823Z,17.90
2019-03-30T09:43:01.518Z,18.10
2019-03-30T09:45:30.164Z,16.70
2019-03-30T09:48:00.091Z,18.00
2019-03-30T09:50:28.610Z,17.27
2019-03-30T09:52:57.316Z,17.53
2019-03-30T09:55:27.324Z,16.97
2019-03-30T09:57:56.490Z,16.13
2019-03-30T10:00:25.302Z,17.67
2019-03-30T10:02:53.923Z,16.93
2019-03-30T10:05:22.561Z,17.53
2019-03-30T10:07:51.358Z,18.47
2019-03-30T10:10:20.054Z,20.20
2019-03-30T10:12:48.680Z,19.37
2019-03-30T10:15:17.683Z,21.00
2019-03-30T10:17:46.377Z,19.93
2019-03-30T10:20:15.080Z,21.50
2019-03-30T10:22:43.823Z,20.77
2019-03-30T10:25:12.586Z,20.50
2019-03-30T10:27:41.421Z,21.00
2019-03-30T10:30:10.890Z,22.20
2019-03-30T10:32:39.526Z,21.20
2019-03-30T10:35:09.751Z,23.90
2019-03-30T10:37:38.411Z,23.03
2019-03-30T10:40:08.884Z,22.43
2019-03-30T10:42:37.483Z,22.37
2019-03-30T10:45:09.258Z,22.77
2019-03-30T10:47:37.996Z,28.40
2019-03-30T10:50:07.782Z,25.30
2019-03-30T10:52:36.477Z,23.70
2019-03-30T10:55:06.887Z,25.43
2019-03-30T10:57:35.456Z,22.50
2019-03-30T11:00:09.428Z,25.20
2019-03-30T11:02:39.431Z,24.50
2019-03-30T11:05:08.330Z,20.93
2019-03-30T11:07:36.981Z,23.50
2019-03-30T11:10:07.840Z,21.47
2019-03-30T11:12:36.473Z,21.77
2019-03-30T11:15:06.391Z,23.47
2019-03-30T11:17:35.146Z,22.87
2019-03-30T11:20:04.425Z,23.70
2019-03-30T11:22:33.052Z,23.03
2019-03-30T11:25:07.634Z,23.33
2019-03-30T11:27:32.061Z,22.93
2019-03-30T11:30:02.490Z,23.10
2019-03-30T11:32:31.114Z,23.70
2019-03-30T11:34:59.825Z,22.43
2019-03-30T11:37:28.487Z,22.07
2019-03-30T11:39:57.118Z,21.93
2019-03-30T11:42:25.681Z,21.07
2019-03-30T11:44:54.274Z,19.77
2019-03-30T11:47:23.045Z,20.57
2019-03-30T11:49:51.785Z,20.70
2019-03-30T11:52:20.511Z,20.90
2019-03-30T11:54:49.129Z,21.23
2019-03-30T11:57:17.837Z,21.77
2019-03-30T11:59:46.528Z,19.70
2019-03-30T12:02:27.370Z,20.63
2019-03-30T12:04:45.523Z,20.30
2019-03-30T12:07:14.283Z,19.63
2019-03-30T12:09:42.777Z,19.80
2019-03-30T12:12:11.409Z,21.13
2019-03-30T12:14:40.137Z,21.07
2019-03-30T12:17:08.681Z,21.00
2019-03-30T12:19:37.287Z,21.03
2019-03-30T12:22:06.021Z,20.10
2019-03-30T12:24:34.584Z,20.27
2019-03-30T12:27:03.203Z,20.17
2019-03-30T12:29:31.754Z,20.37
2019-03-30T12:32:00.447Z,23.47
2019-03-30T12:34:29.157Z,22.20
2019-03-30T12:36:57.883Z,22.30
2019-03-30T12:39:26.465Z,21.70
2019-03-30T12:41:57.361Z,21.17
2019-03-30T12:44:26.161Z,20.17
2019-03-30T12:46:57.637Z,20.77
2019-03-30T12:49:26.211Z,21.33
2019-03-30T12:51:54.944Z,21.20
2019-03-30T12:54:23.505Z,23.70
2019-03-30T12:56:52.213Z,21.90
2019-03-30T12:59:21.587Z,21.40
2019-03-30T13:01:50.274Z,21.27
2019-03-30T13:04:18.930Z,20.10
2019-03-30T13:06:47.519Z,19.77
2019-03-30T13:09:16.150Z,18.77
2019-03-30T13:11:44.768Z,20.17
2019-03-30T13:14:13.346Z,19.37
2019-03-30T13:16:41.832Z,17.67
2019-03-30T13:19:10.446Z,17.17
2019-03-30T13:21:52.081Z,16.80
2019-03-30T13:24:09.292Z,14.80
2019-03-30T13:26:37.930Z,18.00
2019-03-30T13:29:06.650Z,15.50
2019-03-30T13:31:35.244Z,15.40
2019-03-30T13:34:03.879Z,14.40
2019-03-30T13:36:37.196Z,15.00
2019-03-30T13:39:06.882Z,15.10
2019-03-30T13:41:36.176Z,14.93
2019-03-30T13:44:05.811Z,15.27
2019-03-30T13:46:34.637Z,15.20
2019-03-30T13:49:03.181Z,15.50
2019-03-30T13:51:31.934Z,15.47
2019-03-30T13:54:00.503Z,14.07
2019-03-30T13:56:29.018Z,14.57
2019-03-30T13:58:57.706Z,13.33
2019-03-30T14:01:26.319Z,16.13
2019-03-30T14:03:55.073Z,16.20
2019-03-30T14:06:23.658Z,16.47
2019-03-30T14:08:52.310Z,16.77
2019-03-30T14:11:20.820Z,16.67
2019-03-30T14:13:49.428Z,15.97
2019-03-30T14:16:17.993Z,15.03
2019-03-30T14:18:46.625Z,15.20
2019-03-30T14:21:15.211Z,15.10
2019-03-30T14:23:44.002Z,15.37
2019-03-30T14:26:12.506Z,16.70
2019-03-30T14:28:41.249Z,15.13
2019-03-30T14:31:09.821Z,15.47
2019-03-30T14:33:38.501Z,15.10
2019-03-30T14:36:07.160Z,14.87
2019-03-30T14:38:35.719Z,14.70
2019-03-30T14:41:05.660Z,13.67
2019-03-30T14:43:34.326Z,14.70
2019-03-30T14:46:02.818Z,14.13
2019-03-30T14:48:31.482Z,13.90
2019-03-30T14:51:00.170Z,14.77
2019-03-30T14:53:28.765Z,13.87
2019-03-30T14:55:57.418Z,15.33
2019-03-30T14:58:26.026Z,14.73
2019-03-30T15:00:54.852Z,16.30
2019-03-30T15:03:23.397Z,16.30
2019-03-30T15:05:52.194Z,15.57
2019-03-30T15:08:20.745Z,15.80
2019-03-30T15:10:49.349Z,15.60
2019-03-30T15:13:17.932Z,14.23
2019-03-30T15:15:46.719Z,14.73
2019-03-30T15:18:15.410Z,13.43
2019-03-30T15:20:44.052Z,13.87
2019-03-30T15:23:12.548Z,13.97
2019-03-30T15:25:41.194Z,14.83
2019-03-30T15:28:09.872Z,13.90
2019-03-30T15:30:38.582Z,13.50
2019-03-30T15:33:07.106Z,13.70
2019-03-30T15:35:35.651Z,13.90
2019-03-30T15:38:04.218Z,14.53
2019-03-30T15:40:32.846Z,15.10
2019-03-30T15:43:01.482Z,15.10
2019-03-30T15:45:30.063Z,14.63
2019-03-30T15:47:58.661Z,14.70
2019-03-30T15:50:27.380Z,14.60
2019-03-30T15:52:56.096Z,15.40
2019-03-30T15:55:24.734Z,14.67
2019-03-30T15:57:53.461Z,13.83
2019-03-30T16:00:22.083Z,13.73
2019-03-30T16:02:50.836Z,14.70
2019-03-30T16:05:19.626Z,14.37
2019-03-30T16:07:48.338Z,14.40
2019-03-30T16:10:17.023Z,13.37
2019-03-30T16:12:45.838Z,13.37
2019-03-30T16:15:14.649Z,13.20
2019-03-30T16:17:43.364Z,13.20
2019-03-30T16:20:12.230Z,13.07
2019-03-30T16:22:40.934Z,12.63
2019-03-30T16:25:09.965Z,12.73
2019-03-30T16:27:39.395Z,13.37
2019-03-30T16:30:10.226Z,12.47
2019-03-30T16:32:38.951Z,12.60
2019-03-30T16:35:07.722Z,12.77
2019-03-30T16:37:36.280Z,12.00
2019-03-30T16:40:06.487Z,12.97
2019-03-30T16:42:35.128Z,12.80
2019-03-30T16:45:04.885Z,12.90
2019-03-30T16:47:33.631Z,13.17
2019-03-30T16:50:03.111Z,13.70
2019-03-30T16:52:41.576Z,14.00
2019-03-30T16:55:13.177Z,13.47
2019-03-30T16:57:44.094Z,12.30
2019-03-30T17:00:15.938Z,13.77
2019-03-30T17:02:53.101Z,13.37
2019-03-30T17:08:25.835Z,12.87
2019-03-30T17:10:57.193Z,12.40
2019-03-30T17:13:27.272Z,13.00
2019-03-30T17:15:58.534Z,12.40
2019-03-30T17:18:27.379Z,12.17
2019-03-30T17:20:55.968Z,12.03
2019-03-30T17:23:28.806Z,13.07
2019-03-30T17:25:57.455Z,12.97
2019-03-30T17:28:28.379Z,12.20
2019-03-30T17:31:06.171Z,12.33
2019-03-30T17:33:33.907Z,13.07
2019-03-30T17:36:05.429Z,13.40
2019-03-30T17:38:34.230Z,12.77
2019-03-30T17:41:03.169Z,12.53
2019-03-30T17:43:31.895Z,13.43
2019-03-30T17:46:00.801Z,13.97
2019-03-30T17:48:29.344Z,13.20
2019-03-30T17:51:01.118Z,13.70
2019-03-30T17:53:29.803Z,13.47
2019-03-30T17:56:01.698Z,14.60
2019-03-30T17:58:28.907Z,14.70
2019-03-30T18:00:57.526Z,15.57
2019-03-30T18:03:26.127Z,15.97
2019-03-30T18:05:54.845Z,16.60
2019-03-30T18:08:23.443Z,17.50
2019-03-30T18:10:51.998Z,20.37
2019-03-30T18:13:20.601Z,18.53
2019-03-30T18:15:49.452Z,20.97
2019-03-30T18:18:18.077Z,20.73
2019-03-30T18:20:47.038Z,21.87
2019-03-30T18:23:15.646Z,20.77
2019-03-30T18:25:44.432Z,22.67
2019-03-30T18:28:26.178Z,23.13
2019-03-30T18:30:43.516Z,24.00
2019-03-30T18:33:12.167Z,27.83
2019-03-30T18:35:41.363Z,34.17
2019-03-30T18:38:12.877Z,34.93
2019-03-30T18:40:40.997Z,34.93
2019-03-30T18:43:10.376Z,36.90
2019-03-30T18:45:38.951Z,37.20
2019-03-30T18:48:17.185Z,37.73
2019-03-30T18:50:46.514Z,37.43
2019-03-30T18:53:16.555Z,37.47
2019-03-30T18:55:45.374Z,38.70
2019-03-30T18:58:14.141Z,38.13
2019-03-30T19:00:42.861Z,38.00
2019-03-30T19:03:11.620Z,41.03
2019-03-30T19:05:40.367Z,40.60
2019-03-30T19:08:09.057Z,39.50
2019-03-30T19:10:37.802Z,37.83
2019-03-30T19:13:06.564Z,39.80
2019-03-30T19:15:54.744Z,39.40
2019-03-30T19:18:28.555Z,37.67
2019-03-30T19:20:57.237Z,39.53
2019-03-30T19:23:25.862Z,40.07
2019-03-30T19:25:54.625Z,39.50
2019-03-30T19:28:23.458Z,38.33
2019-03-30T19:30:52.209Z,39.53
2019-03-30T19:33:20.889Z,38.27
2019-03-30T19:35:49.486Z,37.10
2019-03-30T19:38:18.256Z,37.67
2019-03-30T19:40:46.929Z,38.90
2019-03-30T19:43:15.569Z,38.77
2019-03-30T19:45:44.418Z,37.63
2019-03-30T19:48:12.996Z,37.67
2019-03-30T19:50:41.771Z,37.67
2019-03-30T19:53:10.423Z,38.37
2019-03-30T19:55:38.996Z,37.67
2019-03-30T19:58:07.745Z,36.27
2019-03-30T20:00:38.795Z,37.63
2019-03-30T20:03:06.893Z,37.17
2019-03-30T20:05:35.551Z,38.00
2019-03-30T20:08:12.048Z,37.50
2019-03-30T20:10:35.796Z,38.33
2019-03-30T20:13:04.504Z,36.30
2019-03-30T20:15:33.239Z,36.40
2019-03-30T20:18:02.065Z,35.67
2019-03-30T20:20:30.659Z,36.47
2019-03-30T20:22:59.389Z,36.40
2019-03-30T20:25:28.185Z,36.93
2019-03-30T20:27:57.028Z,36.13
2019-03-30T20:30:26.074Z,37.63
2019-03-30T20:32:54.731Z,37.73
2019-03-30T20:35:23.370Z,36.93
2019-03-30T20:37:51.976Z,37.70
2019-03-30T20:40:20.661Z,37.97
2019-03-30T20:42:49.249Z,37.90
2019-03-30T20:45:18.127Z,37.80
2019-03-30T20:47:46.751Z,37.40
2019-03-30T20:50:15.665Z,38.20
2019-03-30T20:52:44.472Z,36.20
2019-03-30T20:55:13.817Z,36.53
2019-03-30T20:57:42.646Z,37.77
2019-03-30T21:00:11.739Z,37.63
2019-03-30T21:02:40.313Z,37.20
2019-03-30T21:05:10.321Z,35.63
2019-03-30T21:07:41.741Z,37.27
2019-03-30T21:10:09.832Z,37.43
2019-03-30T21:12:38.325Z,37.90
2019-03-30T21:15:11.759Z,38.00
2019-03-30T21:17:40.500Z,39.20
2019-03-30T21:20:10.226Z,39.07
2019-03-30T21:22:38.771Z,37.20
2019-03-30T21:25:07.472Z,39.13
2019-03-30T21:27:36.325Z,37.43
2019-03-30T21:30:09.349Z,38.67
2019-03-30T21:32:38.349Z,37.53
2019-03-30T21:35:08.367Z,37.70
2019-03-30T21:37:37.094Z,37.43
2019-03-30T21:40:06.905Z,37.47
2019-03-30T21:42:35.521Z,37.83
2019-03-30T21:45:05.939Z,37.97
2019-03-30T21:47:34.549Z,37.80
2019-03-30T21:50:03.252Z,38.07
2019-03-30T21:52:31.829Z,39.60
2019-03-30T21:55:00.694Z,38.87
2019-03-30T21:57:29.346Z,38.67
2019-03-30T22:00:09.238Z,37.93
2019-03-30T22:02:28.441Z,38.83
2019-03-30T22:04:57.102Z,40.40
2019-03-30T22:07:25.935Z,39.07
2019-03-30T22:09:54.584Z,40.57
2019-03-30T22:12:23.317Z,40.87
2019-03-30T22:14:51.959Z,41.10
2019-03-30T22:17:20.707Z,40.53
2019-03-30T22:19:49.290Z,40.57
2019-03-30T22:22:17.951Z,40.50
2019-03-30T22:24:58.897Z,41.47
2019-03-30T22:27:27.731Z,40.63
2019-03-30T22:29:56.363Z,40.80
2019-03-30T22:32:25.289Z,40.77
2019-03-30T22:34:53.997Z,42.87
2019-03-30T22:37:22.791Z,42.33
2019-03-30T22:39:51.613Z,40.83
2019-03-30T22:42:20.526Z,42.63
2019-03-30T22:44:49.292Z,41.27
2019-03-30T22:47:18.101Z,42.43
2019-03-30T22:49:48.701Z,41.17
2019-03-30T22:52:20.342Z,42.90
2019-03-30T22:54:48.470Z,43.40
2019-03-30T22:57:17.054Z,42.73
2019-03-30T22:59:45.687Z,42.83
2019-03-30T23:02:14.302Z,42.27
2019-03-30T23:04:42.931Z,42.43
2019-03-30T23:07:11.573Z,43.43
2019-03-30T23:09:40.271Z,44.47
2019-03-30T23:12:08.937Z,42.93
2019-03-30T23:14:37.646Z,42.33
2019-03-30T23:17:06.239Z,42.00
2019-03-30T23:19:34.867Z,43.13
2019-03-30T23:22:03.478Z,42.90
2019-03-30T23:24:32.144Z,43.23
2019-03-30T23:27:00.827Z,44.90
2019-03-30T23:29:29.462Z,44.53
2019-03-30T23:31:58.281Z,44.70
2019-03-30T23:34:26.823Z,46.80
2019-03-30T23:36:55.611Z,44.83
2019-03-30T23:39:24.236Z,45.40
2019-03-30T23:41:52.985Z,45.70
2019-03-30T23:44:21.689Z,44.07
2019-03-30T23:46:53.743Z,44.47
2019-03-30T23:49:22.630Z,45.07
2019-03-30T23:51:51.489Z,44.10
2019-03-30T23:54:20.642Z,46.03
2019-03-30T23:56:49.742Z,46.03
2019-03-30T23:59:21.607Z,44.67
